sensor_id;sensor_type;location;lat;lon;timestamp;P1;durP1;ratioP1;P2;durP2;ratioP2
80425;SDS011;69766;51.476;5.704;2023-05-10T00:02:33;19.33;;;9.50;;
80425;SDS011;69766;51.476;5.704;2023-05-10T00:04:59;18.85;;;9.18;;
80425;SDS011;69766;51.476;5.704;2023-05-10T00:07:51;19.83;;;10.43;;
80425;SDS011;69766;51.476;5.704;2023-05-10T00:13:22;19.90;;;10.35;;
80425;SDS011;69766;51.476;5.704;2023-05-10T00:16:10;19.55;;;10.38;;
80425;SDS011;69766;51.476;5.704;2023-05-10T00:18:42;20.05;;;11.40;;
80425;SDS011;69766;51.476;5.704;2023-05-10T00:21:22;23.13;;;12.43;;
80425;SDS011;69766;51.476;5.704;2023-05-10T00:24:08;22.73;;;12.48;;
80425;SDS011;69766;51.476;5.704;2023-05-10T00:26:45;24.45;;;13.00;;
80425;SDS011;69766;51.476;5.704;2023-05-10T00:29:16;24.40;;;12.93;;
80425;SDS011;69766;51.476;5.704;2023-05-10T00:31:44;26.92;;;14.50;;
80425;SDS011;69766;51.476;5.704;2023-05-10T00:34:15;28.23;;;15.13;;
80425;SDS011;69766;51.476;5.704;2023-05-10T00:36:54;29.80;;;15.82;;
80425;SDS011;69766;51.476;5.704;2023-05-10T00:39:20;28.95;;;15.18;;
80425;SDS011;69766;51.476;5.704;2023-05-10T00:41:45;30.38;;;14.88;;
80425;SDS011;69766;51.476;5.704;2023-05-10T00:44:11;28.60;;;15.68;;
80425;SDS011;69766;51.476;5.704;2023-05-10T00:46:37;33.13;;;15.65;;
80425;SDS011;69766;51.476;5.704;2023-05-10T00:49:13;32.85;;;16.13;;
80425;SDS011;69766;51.476;5.704;2023-05-10T00:51:48;32.45;;;16.08;;
80425;SDS011;69766;51.476;5.704;2023-05-10T00:54:14;32.40;;;16.52;;
80425;SDS011;69766;51.476;5.704;2023-05-10T00:56:43;33.80;;;15.98;;
80425;SDS011;69766;51.476;5.704;2023-05-10T00:59:14;36.40;;;16.92;;
80425;SDS011;69766;51.476;5.704;2023-05-10T01:01:46;36.83;;;17.75;;
80425;SDS011;69766;51.476;5.704;2023-05-10T01:04:12;40.38;;;17.55;;
80425;SDS011;69766;51.476;5.704;2023-05-10T01:06:42;41.22;;;18.50;;
80425;SDS011;69766;51.476;5.704;2023-05-10T01:09:08;46.38;;;19.73;;
80425;SDS011;69766;51.476;5.704;2023-05-10T01:11:34;46.58;;;21.45;;
80425;SDS011;69766;51.476;5.704;2023-05-10T01:14:01;48.95;;;22.08;;
80425;SDS011;69766;51.476;5.704;2023-05-10T01:16:27;57.15;;;23.58;;
80425;SDS011;69766;51.476;5.704;2023-05-10T01:18:57;60.50;;;25.13;;
80425;SDS011;69766;51.476;5.704;2023-05-10T01:24:25;58.00;;;26.35;;
80425;SDS011;69766;51.476;5.704;2023-05-10T01:37:46;82.75;;;33.13;;
80425;SDS011;69766;51.476;5.704;2023-05-10T01:40:30;82.35;;;30.85;;
80425;SDS011;69766;51.476;5.704;2023-05-10T01:43:05;90.68;;;35.92;;
80425;SDS011;69766;51.476;5.704;2023-05-10T01:45:47;89.45;;;34.85;;
80425;SDS011;69766;51.476;5.704;2023-05-10T01:48:23;91.40;;;34.75;;
80425;SDS011;69766;51.476;5.704;2023-05-10T01:50:55;112.53;;;40.70;;
80425;SDS011;69766;51.476;5.704;2023-05-10T01:53:23;101.70;;;35.60;;
80425;SDS011;69766;51.476;5.704;2023-05-10T01:55:51;106.20;;;37.50;;
80425;SDS011;69766;51.476;5.704;2023-05-10T01:58:20;99.47;;;34.67;;
80425;SDS011;69766;51.476;5.704;2023-05-10T02:00:52;96.55;;;36.15;;
80425;SDS011;69766;51.476;5.704;2023-05-10T02:03:23;110.22;;;38.10;;
80425;SDS011;69766;51.476;5.704;2023-05-10T02:05:51;95.35;;;37.38;;
80425;SDS011;69766;51.476;5.704;2023-05-10T02:08:18;99.50;;;38.22;;
80425;SDS011;69766;51.476;5.704;2023-05-10T02:10:45;99.65;;;37.80;;
80425;SDS011;69766;51.476;5.704;2023-05-10T02:13:13;97.57;;;36.63;;
80425;SDS011;69766;51.476;5.704;2023-05-10T02:15:41;95.38;;;38.72;;
80425;SDS011;69766;51.476;5.704;2023-05-10T02:18:07;90.70;;;36.97;;
80425;SDS011;69766;51.476;5.704;2023-05-10T02:20:35;93.07;;;37.38;;
80425;SDS011;69766;51.476;5.704;2023-05-10T02:23:03;100.45;;;37.35;;
80425;SDS011;69766;51.476;5.704;2023-05-10T02:25:30;98.72;;;36.97;;
80425;SDS011;69766;51.476;5.704;2023-05-10T02:27:56;90.60;;;35.83;;
80425;SDS011;69766;51.476;5.704;2023-05-10T02:30:25;99.47;;;39.58;;
80425;SDS011;69766;51.476;5.704;2023-05-10T02:32:52;91.47;;;36.53;;
80425;SDS011;69766;51.476;5.704;2023-05-10T02:35:18;85.93;;;35.72;;
80425;SDS011;69766;51.476;5.704;2023-05-10T02:37:45;93.80;;;37.47;;
80425;SDS011;69766;51.476;5.704;2023-05-10T02:40:13;99.05;;;38.05;;
80425;SDS011;69766;51.476;5.704;2023-05-10T02:42:43;98.80;;;39.00;;
80425;SDS011;69766;51.476;5.704;2023-05-10T02:45:13;95.35;;;37.72;;
80425;SDS011;69766;51.476;5.704;2023-05-10T02:47:45;96.28;;;38.42;;
80425;SDS011;69766;51.476;5.704;2023-05-10T02:50:10;100.05;;;39.80;;
80425;SDS011;69766;51.476;5.704;2023-05-10T02:52:38;97.32;;;40.00;;
80425;SDS011;69766;51.476;5.704;2023-05-10T02:55:09;96.70;;;36.67;;
80425;SDS011;69766;51.476;5.704;2023-05-10T02:57:41;93.82;;;37.38;;
80425;SDS011;69766;51.476;5.704;2023-05-10T03:00:15;96.70;;;38.30;;
80425;SDS011;69766;51.476;5.704;2023-05-10T03:02:42;93.05;;;38.58;;
80425;SDS011;69766;51.476;5.704;2023-05-10T03:05:07;104.72;;;41.85;;
80425;SDS011;69766;51.476;5.704;2023-05-10T03:07:33;106.55;;;40.90;;
80425;SDS011;69766;51.476;5.704;2023-05-10T03:09:59;96.78;;;40.38;;
80425;SDS011;69766;51.476;5.704;2023-05-10T03:15:54;104.28;;;41.33;;
80425;SDS011;69766;51.476;5.704;2023-05-10T03:18:09;113.60;;;42.67;;
80425;SDS011;69766;51.476;5.704;2023-05-10T03:20:49;113.68;;;45.53;;
80425;SDS011;69766;51.476;5.704;2023-05-10T03:25:48;108.40;;;45.35;;
80425;SDS011;69766;51.476;5.704;2023-05-10T03:28:15;105.75;;;45.38;;
80425;SDS011;69766;51.476;5.704;2023-05-10T03:30:43;119.22;;;47.65;;
80425;SDS011;69766;51.476;5.704;2023-05-10T03:33:15;101.88;;;43.40;;
80425;SDS011;69766;51.476;5.704;2023-05-10T03:35:40;102.85;;;42.22;;
80425;SDS011;69766;51.476;5.704;2023-05-10T03:38:06;110.35;;;42.65;;
80425;SDS011;69766;51.476;5.704;2023-05-10T03:40:32;110.32;;;42.03;;
80425;SDS011;69766;51.476;5.704;2023-05-10T03:42:58;108.97;;;41.70;;
80425;SDS011;69766;51.476;5.704;2023-05-10T03:45:24;107.22;;;41.33;;
80425;SDS011;69766;51.476;5.704;2023-05-10T03:47:49;99.95;;;40.95;;
80425;SDS011;69766;51.476;5.704;2023-05-10T03:50:15;105.18;;;41.80;;
80425;SDS011;69766;51.476;5.704;2023-05-10T03:52:41;98.00;;;42.30;;
80425;SDS011;69766;51.476;5.704;2023-05-10T03:55:07;104.88;;;42.42;;
80425;SDS011;69766;51.476;5.704;2023-05-10T03:57:33;98.25;;;41.35;;
80425;SDS011;69766;51.476;5.704;2023-05-10T03:59:59;110.22;;;42.58;;
80425;SDS011;69766;51.476;5.704;2023-05-10T04:02:28;112.50;;;44.25;;
80425;SDS011;69766;51.476;5.704;2023-05-10T04:04:55;108.78;;;42.67;;
80425;SDS011;69766;51.476;5.704;2023-05-10T04:07:21;103.88;;;40.58;;
80425;SDS011;69766;51.476;5.704;2023-05-10T04:09:47;100.28;;;43.70;;
80425;SDS011;69766;51.476;5.704;2023-05-10T04:12:13;97.80;;;39.63;;
80425;SDS011;69766;51.476;5.704;2023-05-10T04:14:38;106.60;;;42.65;;
80425;SDS011;69766;51.476;5.704;2023-05-10T04:17:04;98.55;;;41.20;;
80425;SDS011;69766;51.476;5.704;2023-05-10T04:19:30;103.05;;;43.00;;
80425;SDS011;69766;51.476;5.704;2023-05-10T04:21:57;97.35;;;41.03;;
80425;SDS011;69766;51.476;5.704;2023-05-10T04:24:23;103.65;;;42.00;;
80425;SDS011;69766;51.476;5.704;2023-05-10T04:26:55;103.80;;;40.53;;
80425;SDS011;69766;51.476;5.704;2023-05-10T04:29:21;97.72;;;39.53;;
80425;SDS011;69766;51.476;5.704;2023-05-10T04:31:53;97.03;;;38.85;;
80425;SDS011;69766;51.476;5.704;2023-05-10T04:34:22;97.28;;;38.70;;
80425;SDS011;69766;51.476;5.704;2023-05-10T04:36:47;90.07;;;36.35;;
80425;SDS011;69766;51.476;5.704;2023-05-10T04:39:13;94.38;;;37.30;;
80425;SDS011;69766;51.476;5.704;2023-05-10T04:41:39;100.93;;;40.58;;
80425;SDS011;69766;51.476;5.704;2023-05-10T04:44:10;101.22;;;38.53;;
80425;SDS011;69766;51.476;5.704;2023-05-10T04:46:36;99.32;;;38.03;;
80425;SDS011;69766;51.476;5.704;2023-05-10T04:49:02;102.75;;;39.88;;
80425;SDS011;69766;51.476;5.704;2023-05-10T04:51:27;104.68;;;39.67;;
80425;SDS011;69766;51.476;5.704;2023-05-10T04:53:53;113.93;;;41.83;;
80425;SDS011;69766;51.476;5.704;2023-05-10T04:56:19;114.43;;;38.83;;
80425;SDS011;69766;51.476;5.704;2023-05-10T04:58:44;112.57;;;39.28;;
80425;SDS011;69766;51.476;5.704;2023-05-10T05:01:13;120.93;;;40.97;;
80425;SDS011;69766;51.476;5.704;2023-05-10T05:03:42;121.00;;;45.28;;
80425;SDS011;69766;51.476;5.704;2023-05-10T05:06:07;140.32;;;48.08;;
80425;SDS011;69766;51.476;5.704;2023-05-10T05:08:33;125.10;;;44.50;;
80425;SDS011;69766;51.476;5.704;2023-05-10T05:10:59;132.60;;;46.47;;
80425;SDS011;69766;51.476;5.704;2023-05-10T05:13:24;125.80;;;46.50;;
80425;SDS011;69766;51.476;5.704;2023-05-10T05:15:50;126.70;;;47.10;;
80425;SDS011;69766;51.476;5.704;2023-05-10T05:18:16;131.13;;;47.22;;
80425;SDS011;69766;51.476;5.704;2023-05-10T05:20:41;135.50;;;46.97;;
80425;SDS011;69766;51.476;5.704;2023-05-10T05:23:07;125.10;;;44.65;;
80425;SDS011;69766;51.476;5.704;2023-05-10T05:25:43;117.47;;;42.28;;
80425;SDS011;69766;51.476;5.704;2023-05-10T05:28:09;115.32;;;43.03;;
80425;SDS011;69766;51.476;5.704;2023-05-10T05:30:34;101.00;;;39.13;;
80425;SDS011;69766;51.476;5.704;2023-05-10T05:33:00;94.43;;;36.40;;
80425;SDS011;69766;51.476;5.704;2023-05-10T05:35:26;92.88;;;36.45;;
80425;SDS011;69766;51.476;5.704;2023-05-10T05:37:52;96.05;;;37.95;;
80425;SDS011;69766;51.476;5.704;2023-05-10T05:40:18;90.85;;;35.63;;
80425;SDS011;69766;51.476;5.704;2023-05-10T05:42:46;75.75;;;33.00;;
80425;SDS011;69766;51.476;5.704;2023-05-10T05:45:12;81.85;;;34.60;;
80425;SDS011;69766;51.476;5.704;2023-05-10T05:47:38;74.28;;;32.88;;
80425;SDS011;69766;51.476;5.704;2023-05-10T05:50:05;74.88;;;31.40;;
80425;SDS011;69766;51.476;5.704;2023-05-10T05:52:34;78.93;;;33.88;;
80425;SDS011;69766;51.476;5.704;2023-05-10T05:54:59;78.20;;;33.38;;
80425;SDS011;69766;51.476;5.704;2023-05-10T05:57:25;80.65;;;32.03;;
80425;SDS011;69766;51.476;5.704;2023-05-10T05:59:51;75.63;;;32.78;;
80425;SDS011;69766;51.476;5.704;2023-05-10T06:02:17;85.53;;;32.08;;
80425;SDS011;69766;51.476;5.704;2023-05-10T06:04:43;71.75;;;30.70;;
80425;SDS011;69766;51.476;5.704;2023-05-10T06:07:11;69.85;;;30.10;;
80425;SDS011;69766;51.476;5.704;2023-05-10T06:09:37;68.43;;;31.58;;
80425;SDS011;69766;51.476;5.704;2023-05-10T06:12:03;81.43;;;33.42;;
80425;SDS011;69766;51.476;5.704;2023-05-10T06:14:28;66.63;;;28.88;;
80425;SDS011;69766;51.476;5.704;2023-05-10T06:16:54;70.32;;;31.38;;
80425;SDS011;69766;51.476;5.704;2023-05-10T06:19:20;61.65;;;28.58;;
80425;SDS011;69766;51.476;5.704;2023-05-10T06:21:46;66.95;;;29.88;;
80425;SDS011;69766;51.476;5.704;2023-05-10T06:24:11;66.10;;;28.42;;
80425;SDS011;69766;51.476;5.704;2023-05-10T06:26:42;62.67;;;29.58;;
80425;SDS011;69766;51.476;5.704;2023-05-10T06:29:07;56.60;;;26.35;;
80425;SDS011;69766;51.476;5.704;2023-05-10T06:31:33;62.03;;;28.30;;
80425;SDS011;69766;51.476;5.704;2023-05-10T06:33:59;55.13;;;27.30;;
80425;SDS011;69766;51.476;5.704;2023-05-10T06:36:25;50.97;;;23.88;;
80425;SDS011;69766;51.476;5.704;2023-05-10T06:39:03;49.47;;;24.70;;
80425;SDS011;69766;51.476;5.704;2023-05-10T06:41:29;54.30;;;24.83;;
80425;SDS011;69766;51.476;5.704;2023-05-10T06:43:55;56.63;;;26.30;;
80425;SDS011;69766;51.476;5.704;2023-05-10T06:46:21;52.17;;;24.73;;
80425;SDS011;69766;51.476;5.704;2023-05-10T06:48:49;50.03;;;24.30;;
80425;SDS011;69766;51.476;5.704;2023-05-10T06:51:20;55.60;;;23.98;;
80425;SDS011;69766;51.476;5.704;2023-05-10T06:53:52;45.40;;;23.45;;
80425;SDS011;69766;51.476;5.704;2023-05-10T06:56:17;51.60;;;23.70;;
80425;SDS011;69766;51.476;5.704;2023-05-10T06:58:46;56.80;;;24.08;;
80425;SDS011;69766;51.476;5.704;2023-05-10T07:01:17;53.20;;;24.77;;
80425;SDS011;69766;51.476;5.704;2023-05-10T07:03:51;53.50;;;24.90;;
80425;SDS011;69766;51.476;5.704;2023-05-10T07:06:17;46.67;;;23.35;;
80425;SDS011;69766;51.476;5.704;2023-05-10T07:08:46;49.20;;;24.58;;
80425;SDS011;69766;51.476;5.704;2023-05-10T07:11:26;46.75;;;23.08;;
80425;SDS011;69766;51.476;5.704;2023-05-10T07:13:57;47.78;;;23.90;;
80425;SDS011;69766;51.476;5.704;2023-05-10T07:18:53;52.70;;;23.70;;
80425;SDS011;69766;51.476;5.704;2023-05-10T07:21:21;54.65;;;23.88;;
80425;SDS011;69766;51.476;5.704;2023-05-10T07:23:56;52.47;;;24.02;;
80425;SDS011;69766;51.476;5.704;2023-05-10T07:26:27;46.72;;;24.88;;
80425;SDS011;69766;51.476;5.704;2023-05-10T07:28:53;48.30;;;24.50;;
80425;SDS011;69766;51.476;5.704;2023-05-10T07:31:25;52.80;;;25.48;;
80425;SDS011;69766;51.476;5.704;2023-05-10T07:33:51;52.10;;;25.50;;
80425;SDS011;69766;51.476;5.704;2023-05-10T07:36:20;50.33;;;25.77;;
80425;SDS011;69766;51.476;5.704;2023-05-10T07:38:58;50.83;;;26.55;;
80425;SDS011;69766;51.476;5.704;2023-05-10T07:41:29;55.58;;;27.00;;
80425;SDS011;69766;51.476;5.704;2023-05-10T07:43:55;53.95;;;26.40;;
80425;SDS011;69766;51.476;5.704;2023-05-10T07:46:24;56.70;;;25.33;;
80425;SDS011;69766;51.476;5.704;2023-05-10T07:48:50;55.90;;;27.75;;
80425;SDS011;69766;51.476;5.704;2023-05-10T07:51:24;49.83;;;26.17;;
80425;SDS011;69766;51.476;5.704;2023-05-10T07:53:51;52.50;;;25.60;;
80425;SDS011;69766;51.476;5.704;2023-05-10T07:56:20;50.10;;;25.20;;
80425;SDS011;69766;51.476;5.704;2023-05-10T07:59:10;50.13;;;25.80;;
80425;SDS011;69766;51.476;5.704;2023-05-10T08:01:41;49.88;;;25.25;;
80425;SDS011;69766;51.476;5.704;2023-05-10T08:04:07;52.08;;;25.02;;
80425;SDS011;69766;51.476;5.704;2023-05-10T08:06:36;53.38;;;26.27;;
80425;SDS011;69766;51.476;5.704;2023-05-10T08:09:08;55.03;;;25.85;;
80425;SDS011;69766;51.476;5.704;2023-05-10T08:11:36;49.70;;;25.17;;
80425;SDS011;69766;51.476;5.704;2023-05-10T08:14:07;52.10;;;25.77;;
80425;SDS011;69766;51.476;5.704;2023-05-10T08:16:36;53.45;;;25.60;;
80425;SDS011;69766;51.476;5.704;2023-05-10T08:19:02;47.40;;;24.13;;
80425;SDS011;69766;51.476;5.704;2023-05-10T08:21:30;47.08;;;23.92;;
80425;SDS011;69766;51.476;5.704;2023-05-10T08:23:56;45.80;;;22.90;;
80425;SDS011;69766;51.476;5.704;2023-05-10T08:26:30;48.55;;;22.75;;
80425;SDS011;69766;51.476;5.704;2023-05-10T08:29:02;42.03;;;22.75;;
80425;SDS011;69766;51.476;5.704;2023-05-10T08:31:30;42.08;;;21.75;;
80425;SDS011;69766;51.476;5.704;2023-05-10T08:33:56;37.53;;;19.42;;
80425;SDS011;69766;51.476;5.704;2023-05-10T08:36:25;40.53;;;20.55;;
80425;SDS011;69766;51.476;5.704;2023-05-10T08:38:55;33.25;;;17.85;;
80425;SDS011;69766;51.476;5.704;2023-05-10T08:41:22;35.90;;;17.83;;
80425;SDS011;69766;51.476;5.704;2023-05-10T08:44:01;31.25;;;16.52;;
80425;SDS011;69766;51.476;5.704;2023-05-10T08:46:29;32.75;;;16.50;;
80425;SDS011;69766;51.476;5.704;2023-05-10T08:49:03;28.38;;;14.77;;
80425;SDS011;69766;51.476;5.704;2023-05-10T08:51:42;22.08;;;12.77;;
80425;SDS011;69766;51.476;5.704;2023-05-10T08:54:34;25.20;;;12.20;;
80425;SDS011;69766;51.476;5.704;2023-05-10T08:57:06;22.50;;;12.10;;
80425;SDS011;69766;51.476;5.704;2023-05-10T08:59:40;20.08;;;10.85;;
80425;SDS011;69766;51.476;5.704;2023-05-10T09:02:15;18.38;;;10.40;;
80425;SDS011;69766;51.476;5.704;2023-05-10T09:04:45;20.02;;;10.40;;
80425;SDS011;69766;51.476;5.704;2023-05-10T09:07:11;22.15;;;10.23;;
80425;SDS011;69766;51.476;5.704;2023-05-10T09:09:43;16.38;;;9.13;;
80425;SDS011;69766;51.476;5.704;2023-05-10T09:12:13;18.08;;;8.95;;
80425;SDS011;69766;51.476;5.704;2023-05-10T09:14:40;16.83;;;8.57;;
80425;SDS011;69766;51.476;5.704;2023-05-10T09:17:09;15.40;;;8.23;;
80425;SDS011;69766;51.476;5.704;2023-05-10T09:19:43;12.07;;;7.38;;
80425;SDS011;69766;51.476;5.704;2023-05-10T09:22:10;18.67;;;8.70;;
80425;SDS011;69766;51.476;5.704;2023-05-10T09:24:36;16.05;;;7.70;;
80425;SDS011;69766;51.476;5.704;2023-05-10T09:27:07;15.85;;;8.10;;
80425;SDS011;69766;51.476;5.704;2023-05-10T09:29:39;14.02;;;8.05;;
80425;SDS011;69766;51.476;5.704;2023-05-10T09:32:07;15.88;;;8.35;;
80425;SDS011;69766;51.476;5.704;2023-05-10T09:34:33;14.50;;;8.68;;
80425;SDS011;69766;51.476;5.704;2023-05-10T09:37:05;15.27;;;8.75;;
80425;SDS011;69766;51.476;5.704;2023-05-10T09:39:35;18.77;;;9.93;;
80425;SDS011;69766;51.476;5.704;2023-05-10T09:42:09;16.88;;;9.00;;
80425;SDS011;69766;51.476;5.704;2023-05-10T09:44:43;17.60;;;8.00;;
80425;SDS011;69766;51.476;5.704;2023-05-10T09:47:11;14.50;;;7.65;;
80425;SDS011;69766;51.476;5.704;2023-05-10T09:49:43;13.65;;;7.05;;
80425;SDS011;69766;51.476;5.704;2023-05-10T09:52:09;13.57;;;7.72;;
80425;SDS011;69766;51.476;5.704;2023-05-10T09:54:42;13.40;;;7.15;;
80425;SDS011;69766;51.476;5.704;2023-05-10T09:57:23;9.00;;;6.15;;
80425;SDS011;69766;51.476;5.704;2023-05-10T09:59:50;10.70;;;6.60;;
80425;SDS011;69766;51.476;5.704;2023-05-10T10:02:18;9.48;;;5.80;;
80425;SDS011;69766;51.476;5.704;2023-05-10T10:04:44;9.98;;;6.10;;
80425;SDS011;69766;51.476;5.704;2023-05-10T10:07:17;11.07;;;4.80;;
80425;SDS011;69766;51.476;5.704;2023-05-10T10:09:54;8.23;;;5.45;;
80425;SDS011;69766;51.476;5.704;2023-05-10T10:12:23;10.52;;;5.40;;
80425;SDS011;69766;51.476;5.704;2023-05-10T10:14:49;9.43;;;6.05;;
80425;SDS011;69766;51.476;5.704;2023-05-10T10:17:16;10.23;;;5.80;;
80425;SDS011;69766;51.476;5.704;2023-05-10T10:19:44;10.70;;;6.50;;
80425;SDS011;69766;51.476;5.704;2023-05-10T10:22:11;14.82;;;8.00;;
80425;SDS011;69766;51.476;5.704;2023-05-10T10:24:40;12.25;;;7.88;;
80425;SDS011;69766;51.476;5.704;2023-05-10T10:32:59;16.27;;;9.73;;
80425;SDS011;69766;51.476;5.704;2023-05-10T10:35:36;17.40;;;10.43;;
80425;SDS011;69766;51.476;5.704;2023-05-10T10:38:02;18.48;;;10.98;;
80425;SDS011;69766;51.476;5.704;2023-05-10T10:40:32;17.40;;;11.10;;
80425;SDS011;69766;51.476;5.704;2023-05-10T10:43:21;16.98;;;10.30;;
80425;SDS011;69766;51.476;5.704;2023-05-10T10:48:39;15.07;;;9.32;;
80425;SDS011;69766;51.476;5.704;2023-05-10T10:51:09;13.38;;;8.93;;
80425;SDS011;69766;51.476;5.704;2023-05-10T10:53:36;14.30;;;8.57;;
80425;SDS011;69766;51.476;5.704;2023-05-10T10:56:09;13.90;;;9.27;;
80425;SDS011;69766;51.476;5.704;2023-05-10T10:58:40;13.63;;;9.15;;
80425;SDS011;69766;51.476;5.704;2023-05-10T11:01:15;15.10;;;9.68;;
80425;SDS011;69766;51.476;5.704;2023-05-10T11:04:16;16.27;;;8.23;;
80425;SDS011;69766;51.476;5.704;2023-05-10T11:06:43;14.55;;;8.13;;
80425;SDS011;69766;51.476;5.704;2023-05-10T11:09:10;13.48;;;7.60;;
80425;SDS011;69766;51.476;5.704;2023-05-10T11:11:55;13.10;;;7.88;;
80425;SDS011;69766;51.476;5.704;2023-05-10T11:14:21;13.98;;;8.23;;
80425;SDS011;69766;51.476;5.704;2023-05-10T11:16:50;10.35;;;7.32;;
80425;SDS011;69766;51.476;5.704;2023-05-10T11:19:19;10.73;;;7.13;;
80425;SDS011;69766;51.476;5.704;2023-05-10T11:24:55;12.10;;;5.28;;
80425;SDS011;69766;51.476;5.704;2023-05-10T11:27:23;9.50;;;5.65;;
80425;SDS011;69766;51.476;5.704;2023-05-10T11:29:52;13.75;;;6.80;;
80425;SDS011;69766;51.476;5.704;2023-05-10T11:32:18;12.98;;;8.77;;
80425;SDS011;69766;51.476;5.704;2023-05-10T11:34:46;12.80;;;8.15;;
80425;SDS011;69766;51.476;5.704;2023-05-10T11:37:13;23.08;;;12.05;;
80425;SDS011;69766;51.476;5.704;2023-05-10T11:39:38;17.40;;;12.63;;
80425;SDS011;69766;51.476;5.704;2023-05-10T11:42:13;21.45;;;14.63;;
80425;SDS011;69766;51.476;5.704;2023-05-10T11:44:38;23.40;;;14.07;;
80425;SDS011;69766;51.476;5.704;2023-05-10T11:47:05;22.92;;;14.00;;
80425;SDS011;69766;51.476;5.704;2023-05-10T11:49:43;19.77;;;12.68;;
80425;SDS011;69766;51.476;5.704;2023-05-10T11:52:10;18.45;;;12.38;;
80425;SDS011;69766;51.476;5.704;2023-05-10T11:54:51;16.67;;;11.98;;
80425;SDS011;69766;51.476;5.704;2023-05-10T11:57:25;21.63;;;12.55;;
80425;SDS011;69766;51.476;5.704;2023-05-10T11:59:58;18.05;;;11.55;;
80425;SDS011;69766;51.476;5.704;2023-05-10T12:02:24;22.67;;;12.68;;
80425;SDS011;69766;51.476;5.704;2023-05-10T12:04:54;19.30;;;11.63;;
80425;SDS011;69766;51.476;5.704;2023-05-10T12:07:28;16.27;;;11.25;;
80425;SDS011;69766;51.476;5.704;2023-05-10T12:10:04;18.02;;;11.30;;
80425;SDS011;69766;51.476;5.704;2023-05-10T12:12:35;18.50;;;11.88;;
80425;SDS011;69766;51.476;5.704;2023-05-10T12:15:12;19.42;;;12.70;;
80425;SDS011;69766;51.476;5.704;2023-05-10T12:17:45;16.00;;;11.45;;
80425;SDS011;69766;51.476;5.704;2023-05-10T12:20:21;20.27;;;13.00;;
80425;SDS011;69766;51.476;5.704;2023-05-10T12:22:53;22.00;;;13.20;;
80425;SDS011;69766;51.476;5.704;2023-05-10T12:25:26;22.17;;;13.63;;
80425;SDS011;69766;51.476;5.704;2023-05-10T12:27:59;21.58;;;14.40;;
80425;SDS011;69766;51.476;5.704;2023-05-10T12:30:32;18.50;;;11.80;;
80425;SDS011;69766;51.476;5.704;2023-05-10T12:33:13;16.52;;;11.43;;
80425;SDS011;69766;51.476;5.704;2023-05-10T12:41:11;15.50;;;10.95;;
80425;SDS011;69766;51.476;5.704;2023-05-10T12:43:40;16.70;;;10.83;;
80425;SDS011;69766;51.476;5.704;2023-05-10T12:46:14;15.30;;;10.35;;
80425;SDS011;69766;51.476;5.704;2023-05-10T12:51:25;18.20;;;11.00;;
80425;SDS011;69766;51.476;5.704;2023-05-10T12:53:54;17.38;;;10.82;;
80425;SDS011;69766;51.476;5.704;2023-05-10T12:56:25;17.55;;;11.55;;
80425;SDS011;69766;51.476;5.704;2023-05-10T12:58:51;20.67;;;12.30;;
80425;SDS011;69766;51.476;5.704;2023-05-10T13:01:20;20.92;;;11.73;;
80425;SDS011;69766;51.476;5.704;2023-05-10T13:03:48;19.15;;;11.63;;
80425;SDS011;69766;51.476;5.704;2023-05-10T13:06:20;16.00;;;10.90;;
80425;SDS011;69766;51.476;5.704;2023-05-10T13:08:46;19.73;;;11.55;;
80425;SDS011;69766;51.476;5.704;2023-05-10T13:11:14;20.55;;;13.65;;
80425;SDS011;69766;51.476;5.704;2023-05-10T13:13:46;24.60;;;14.07;;
80425;SDS011;69766;51.476;5.704;2023-05-10T13:16:12;25.42;;;17.08;;
80425;SDS011;69766;51.476;5.704;2023-05-10T13:18:37;26.83;;;16.65;;
80425;SDS011;69766;51.476;5.704;2023-05-10T13:21:06;26.65;;;15.93;;
80425;SDS011;69766;51.476;5.704;2023-05-10T13:23:32;24.92;;;14.88;;
80425;SDS011;69766;51.476;5.704;2023-05-10T13:25:59;24.75;;;15.70;;
80425;SDS011;69766;51.476;5.704;2023-05-10T13:28:24;21.40;;;13.63;;
80425;SDS011;69766;51.476;5.704;2023-05-10T13:30:51;20.92;;;13.32;;
80425;SDS011;69766;51.476;5.704;2023-05-10T13:33:17;19.20;;;12.60;;
80425;SDS011;69766;51.476;5.704;2023-05-10T13:35:43;17.83;;;12.23;;
80425;SDS011;69766;51.476;5.704;2023-05-10T13:38:09;16.63;;;10.70;;
80425;SDS011;69766;51.476;5.704;2023-05-10T13:40:35;13.48;;;10.13;;
80425;SDS011;69766;51.476;5.704;2023-05-10T13:43:03;13.95;;;10.32;;
80425;SDS011;69766;51.476;5.704;2023-05-10T13:45:31;14.23;;;10.32;;
80425;SDS011;69766;51.476;5.704;2023-05-10T13:48:03;11.30;;;9.32;;
80425;SDS011;69766;51.476;5.704;2023-05-10T13:50:29;11.20;;;8.57;;
80425;SDS011;69766;51.476;5.704;2023-05-10T13:52:58;9.90;;;8.07;;
80425;SDS011;69766;51.476;5.704;2023-05-10T13:55:24;8.52;;;6.68;;
80425;SDS011;69766;51.476;5.704;2023-05-10T13:57:50;10.05;;;8.30;;
80425;SDS011;69766;51.476;5.704;2023-05-10T14:00:15;10.85;;;8.38;;
80425;SDS011;69766;51.476;5.704;2023-05-10T14:02:41;10.23;;;8.50;;
80425;SDS011;69766;51.476;5.704;2023-05-10T14:05:10;11.80;;;8.75;;
80425;SDS011;69766;51.476;5.704;2023-05-10T14:07:39;11.32;;;9.40;;
80425;SDS011;69766;51.476;5.704;2023-05-10T14:10:05;12.77;;;9.90;;
80425;SDS011;69766;51.476;5.704;2023-05-10T14:12:34;12.43;;;10.23;;
80425;SDS011;69766;51.476;5.704;2023-05-10T14:15:03;14.93;;;10.75;;
80425;SDS011;69766;51.476;5.704;2023-05-10T14:17:31;14.57;;;10.27;;
80425;SDS011;69766;51.476;5.704;2023-05-10T14:19:57;13.93;;;11.00;;
80425;SDS011;69766;51.476;5.704;2023-05-10T14:22:25;13.60;;;10.85;;
80425;SDS011;69766;51.476;5.704;2023-05-10T14:24:54;17.67;;;12.45;;
80425;SDS011;69766;51.476;5.704;2023-05-10T14:27:20;18.25;;;12.02;;
80425;SDS011;69766;51.476;5.704;2023-05-10T14:29:47;19.98;;;13.52;;
80425;SDS011;69766;51.476;5.704;2023-05-10T14:32:21;24.08;;;14.60;;
80425;SDS011;69766;51.476;5.704;2023-05-10T14:34:54;21.67;;;15.10;;
80425;SDS011;69766;51.476;5.704;2023-05-10T14:37:20;22.90;;;15.15;;
80425;SDS011;69766;51.476;5.704;2023-05-10T14:39:46;26.75;;;17.45;;
80425;SDS011;69766;51.476;5.704;2023-05-10T14:42:12;29.42;;;18.95;;
80425;SDS011;69766;51.476;5.704;2023-05-10T14:44:37;24.13;;;16.23;;
80425;SDS011;69766;51.476;5.704;2023-05-10T14:47:03;30.00;;;18.00;;
80425;SDS011;69766;51.476;5.704;2023-05-10T14:49:32;28.10;;;16.55;;
80425;SDS011;69766;51.476;5.704;2023-05-10T14:51:58;27.52;;;16.02;;
80425;SDS011;69766;51.476;5.704;2023-05-10T14:54:29;27.08;;;17.13;;
80425;SDS011;69766;51.476;5.704;2023-05-10T14:57:04;25.10;;;14.95;;
80425;SDS011;69766;51.476;5.704;2023-05-10T14:59:39;34.25;;;17.58;;
80425;SDS011;69766;51.476;5.704;2023-05-10T15:02:13;28.58;;;17.67;;
80425;SDS011;69766;51.476;5.704;2023-05-10T15:08:06;28.92;;;17.98;;
80425;SDS011;69766;51.476;5.704;2023-05-10T15:10:48;27.65;;;17.50;;
80425;SDS011;69766;51.476;5.704;2023-05-10T15:13:34;29.58;;;17.98;;
80425;SDS011;69766;51.476;5.704;2023-05-10T15:16:02;29.88;;;17.00;;
80425;SDS011;69766;51.476;5.704;2023-05-10T15:18:31;25.20;;;16.30;;
80425;SDS011;69766;51.476;5.704;2023-05-10T15:21:06;21.98;;;13.10;;
80425;SDS011;69766;51.476;5.704;2023-05-10T15:23:33;18.52;;;12.65;;
80425;SDS011;69766;51.476;5.704;2023-05-10T15:26:03;18.08;;;11.60;;